createdAt,value
2023-04-12T00:01:14.930Z,4.60
2023-04-12T00:03:43.874Z,4.60
2023-04-12T00:06:14.377Z,4.60
2023-04-12T00:08:43.104Z,4.60
2023-04-12T00:11:11.916Z,4.60
2023-04-12T00:13:41.956Z,4.60
2023-04-12T00:16:10.996Z,4.60
2023-04-12T00:18:39.736Z,4.60
2023-04-12T00:21:10.506Z,4.60
2023-04-12T00:23:39.557Z,4.60
2023-04-12T00:26:08.718Z,4.60
2023-04-12T00:28:37.500Z,4.60
2023-04-12T00:31:08.648Z,4.60
2023-04-12T00:33:37.628Z,4.70
2023-04-12T00:36:06.813Z,4.70
2023-04-12T00:38:36.704Z,4.70
2023-04-12T00:41:05.985Z,4.70
2023-04-12T00:43:35.778Z,4.70
2023-04-12T00:46:04.846Z,4.80
2023-04-12T00:48:35.863Z,4.80
2023-04-12T00:51:05.002Z,4.80
2023-04-12T00:53:35.269Z,4.80
2023-04-12T00:56:05.561Z,4.80
2023-04-12T00:58:34.620Z,4.80
2023-04-12T01:01:03.549Z,4.90
2023-04-12T01:03:32.625Z,4.90
2023-04-12T01:06:16.024Z,4.90
2023-04-12T01:08:59.442Z,4.90
2023-04-12T01:11:34.134Z,5.00
2023-04-12T01:14:12.974Z,5.00
2023-04-12T01:16:46.288Z,5.00
2023-04-12T01:19:35.090Z,5.00
2023-04-12T01:22:18.490Z,5.00
2023-04-12T01:25:05.266Z,5.00
2023-04-12T01:27:41.120Z,5.00
2023-04-12T01:30:13.107Z,5.00
2023-04-12T01:32:45.638Z,5.10
2023-04-12T01:35:15.076Z,5.10
2023-04-12T01:37:44.379Z,5.10
2023-04-12T01:40:14.461Z,5.20
2023-04-12T01:42:44.847Z,5.20
2023-04-12T01:45:13.905Z,5.20
2023-04-12T01:47:44.446Z,5.20
2023-04-12T01:50:19.981Z,5.20
2023-04-12T01:52:54.853Z,5.20
2023-04-12T01:55:25.186Z,5.10
2023-04-12T01:57:56.297Z,5.20
2023-04-12T02:00:26.514Z,5.20
2023-04-12T02:02:55.773Z,5.20
2023-04-12T02:05:24.967Z,5.20
2023-04-12T02:07:54.805Z,5.20
2023-04-12T02:10:30.773Z,5.20
2023-04-12T02:13:04.767Z,5.20
2023-04-12T02:15:34.405Z,5.30
2023-04-12T02:18:03.488Z,5.30
2023-04-12T02:20:32.508Z,5.30
2023-04-12T02:23:01.298Z,5.30
2023-04-12T02:25:31.213Z,5.40
2023-04-12T02:28:00.078Z,5.40
2023-04-12T02:30:30.527Z,5.40
2023-04-12T02:32:59.433Z,5.40
2023-04-12T02:35:33.629Z,5.40
2023-04-12T02:38:09.333Z,5.40
2023-04-12T02:40:42.342Z,5.40
2023-04-12T02:43:15.366Z,5.40
2023-04-12T02:45:49.285Z,5.40
2023-04-12T02:48:18.024Z,5.40
2023-04-12T02:50:47.476Z,5.50
2023-04-12T02:53:19.591Z,5.50
2023-04-12T02:55:57.362Z,5.50
2023-04-12T02:58:28.759Z,5.50
2023-04-12T03:01:00.339Z,5.60
2023-04-12T03:03:34.887Z,5.60
2023-04-12T03:06:14.685Z,5.60
2023-04-12T03:08:44.994Z,5.70
2023-04-12T03:11:17.976Z,5.70
2023-04-12T03:13:47.009Z,5.70
2023-04-12T03:16:25.229Z,5.70
2023-04-12T03:19:01.918Z,5.80
2023-04-12T03:21:31.235Z,5.80
2023-04-12T03:24:00.068Z,5.80
2023-04-12T03:26:29.095Z,5.90
2023-04-12T03:29:05.079Z,5.90
2023-04-12T03:31:37.871Z,5.90
2023-04-12T03:34:09.835Z,5.90
2023-04-12T03:36:43.152Z,5.90
2023-04-12T03:39:22.325Z,5.90
2023-04-12T03:41:53.783Z,5.90
2023-04-12T03:44:28.080Z,5.90
2023-04-12T03:47:00.721Z,5.90
2023-04-12T03:49:38.251Z,5.90
2023-04-12T03:52:11.471Z,5.90
2023-04-12T03:54:41.889Z,6.00
2023-04-12T03:57:14.051Z,6.00
2023-04-12T03:59:46.433Z,6.00
2023-04-12T04:02:17.904Z,6.00
2023-04-12T04:04:50.094Z,6.00
2023-04-12T04:07:27.188Z,6.00
2023-04-12T04:09:58.161Z,6.00
2023-04-12T04:12:31.209Z,6.00
2023-04-12T04:14:59.972Z,6.00
2023-04-12T04:17:35.257Z,6.00
2023-04-12T04:20:05.776Z,6.00
2023-04-12T04:22:37.232Z,6.00
2023-04-12T04:25:07.820Z,6.00
2023-04-12T04:27:40.532Z,6.10
2023-04-12T04:30:11.904Z,6.10
2023-04-12T04:32:48.485Z,6.10
2023-04-12T04:35:18.638Z,6.10
2023-04-12T04:38:02.042Z,6.10
2023-04-12T04:40:31.060Z,6.10
2023-04-12T04:43:00.149Z,6.20
2023-04-12T04:45:33.066Z,6.20
2023-04-12T04:48:04.216Z,6.30
2023-04-12T04:50:33.162Z,6.30
2023-04-12T04:53:02.679Z,6.30
2023-04-12T04:55:34.465Z,6.30
2023-04-12T04:58:03.436Z,6.40
2023-04-12T05:00:32.548Z,6.40
2023-04-12T05:03:04.124Z,6.50
2023-04-12T05:05:33.491Z,6.50
2023-04-12T05:08:10.208Z,6.60
2023-04-12T05:10:39.365Z,6.60
2023-04-12T05:13:10.129Z,6.70
2023-04-12T05:15:42.214Z,6.70
2023-04-12T05:18:12.860Z,6.80
2023-04-12T05:20:44.538Z,6.90
2023-04-12T05:23:13.496Z,7.00
2023-04-12T05:25:47.324Z,7.00
2023-04-12T05:28:17.672Z,7.10
2023-04-12T05:30:46.912Z,7.10
2023-04-12T05:33:21.799Z,7.20
2023-04-12T05:35:51.230Z,7.30
2023-04-12T05:38:20.155Z,7.30
2023-04-12T05:40:54.326Z,7.30
2023-04-12T05:43:25.535Z,7.50
2023-04-12T05:45:54.361Z,7.50
2023-04-12T05:48:26.981Z,7.50
2023-04-12T05:50:58.420Z,7.60
2023-04-12T05:53:29.910Z,7.60
2023-04-12T05:56:02.063Z,7.70
2023-04-12T05:58:31.842Z,7.80
2023-04-12T06:01:01.193Z,7.90
2023-04-12T06:03:32.352Z,8.00
2023-04-12T06:06:10.928Z,8.00
2023-04-12T06:08:39.826Z,8.10
2023-04-12T06:11:09.548Z,8.20
2023-04-12T06:13:38.812Z,8.20
2023-04-12T06:16:08.226Z,8.30
2023-04-12T06:18:38.729Z,8.40
2023-04-12T06:21:09.480Z,8.40
2023-04-12T06:23:38.285Z,8.40
2023-04-12T06:26:07.791Z,8.40
2023-04-12T06:28:36.468Z,8.50
2023-04-12T06:31:05.918Z,8.50
2023-04-12T06:33:42.052Z,8.50
2023-04-12T06:36:12.896Z,8.50
2023-04-12T06:38:45.584Z,8.50
2023-04-12T06:41:15.232Z,8.50
2023-04-12T06:43:44.134Z,8.60
2023-04-12T06:46:15.659Z,8.60
2023-04-12T06:48:45.941Z,8.60
2023-04-12T06:51:14.754Z,8.60
2023-04-12T06:53:43.453Z,8.60
2023-04-12T06:56:12.094Z,8.60
2023-04-12T06:58:40.733Z,8.60
2023-04-12T07:01:10.331Z,8.60
2023-04-12T07:03:39.179Z,8.70
2023-04-12T07:06:21.931Z,8.70
2023-04-12T07:08:53.425Z,8.80
2023-04-12T07:11:23.440Z,8.80
2023-04-12T07:13:52.391Z,8.80
2023-04-12T07:16:21.080Z,8.90
2023-04-12T07:18:50.360Z,8.90
2023-04-12T07:21:20.827Z,9.00
2023-04-12T07:23:51.833Z,9.00
2023-04-12T07:26:21.886Z,9.00
2023-04-12T07:28:50.888Z,9.00
2023-04-12T07:31:19.523Z,9.00
2023-04-12T07:33:48.223Z,9.00
2023-04-12T07:36:20.765Z,9.10
2023-04-12T07:38:55.454Z,9.10
2023-04-12T07:41:24.661Z,9.20
2023-04-12T07:43:53.358Z,9.20
2023-04-12T07:46:22.262Z,9.30
2023-04-12T07:48:51.152Z,9.20
2023-04-12T07:51:19.836Z,9.30
2023-04-12T07:53:49.067Z,9.30
2023-04-12T07:56:19.155Z,9.30
2023-04-12T07:58:48.179Z,9.40
2023-04-12T08:01:17.111Z,9.50
2023-04-12T08:03:45.810Z,9.60
2023-04-12T08:06:14.751Z,9.80
2023-04-12T08:08:43.462Z,9.90
2023-04-12T08:11:12.449Z,10.10
2023-04-12T08:13:42.622Z,10.20
2023-04-12T08:16:13.014Z,10.30
2023-04-12T08:18:41.773Z,10.30
2023-04-12T08:21:10.462Z,10.20
2023-04-12T08:23:39.265Z,10.20
2023-04-12T08:26:08.044Z,10.10
2023-04-12T08:28:37.829Z,10.20
2023-04-12T08:31:09.903Z,10.30
2023-04-12T08:33:43.001Z,10.40
2023-04-12T08:36:12.085Z,10.50
2023-04-12T08:38:45.992Z,10.60
2023-04-12T08:41:15.558Z,10.80
2023-04-12T08:43:47.605Z,10.90
2023-04-12T08:46:18.878Z,10.90
2023-04-12T08:48:54.695Z,10.90
2023-04-12T08:51:23.880Z,11.00
2023-04-12T08:53:54.159Z,11.00
2023-04-12T08:56:24.486Z,11.00
2023-04-12T08:58:54.425Z,11.00
2023-04-12T09:01:24.595Z,11.10
2023-04-12T09:03:53.432Z,11.20
2023-04-12T09:06:22.329Z,11.30
2023-04-12T09:08:55.625Z,11.40
2023-04-12T09:11:26.059Z,11.30
2023-04-12T09:13:56.634Z,11.40
2023-04-12T09:16:41.442Z,11.40
2023-04-12T09:19:10.883Z,11.40
2023-04-12T09:21:53.833Z,11.40
2023-04-12T09:24:24.390Z,11.30
2023-04-12T09:27:04.031Z,11.20
2023-04-12T09:29:34.133Z,11.20
2023-04-12T09:32:05.848Z,11.10
2023-04-12T09:34:35.944Z,11.10
2023-04-12T09:37:14.872Z,11.10
2023-04-12T09:39:44.359Z,10.90
2023-04-12T09:42:31.802Z,10.80
2023-04-12T09:45:03.946Z,10.80
2023-04-12T09:47:41.604Z,10.70
2023-04-12T09:50:11.126Z,10.60
2023-04-12T09:52:40.786Z,10.50
2023-04-12T09:55:11.242Z,10.50
2023-04-12T09:57:42.384Z,10.40
2023-04-12T10:00:14.295Z,10.40
2023-04-12T10:02:46.846Z,10.40
2023-04-12T10:05:18.240Z,10.40
2023-04-12T10:07:48.084Z,10.50
2023-04-12T10:10:18.633Z,10.60
2023-04-12T10:12:48.382Z,10.80
2023-04-12T10:15:18.702Z,11.00
2023-04-12T10:17:52.562Z,11.20
2023-04-12T10:20:26.164Z,11.30
2023-04-12T10:22:56.125Z,11.30
2023-04-12T10:25:31.115Z,11.30
2023-04-12T10:28:15.487Z,11.20
2023-04-12T10:30:44.255Z,11.20
2023-04-12T10:33:19.176Z,11.30
2023-04-12T10:36:03.841Z,11.30
2023-04-12T10:38:46.996Z,11.50
2023-04-12T10:41:18.872Z,11.70
2023-04-12T10:43:48.013Z,12.00
2023-04-12T10:46:53.737Z,12.30
2023-04-12T10:49:24.087Z,12.40
2023-04-12T10:52:15.441Z,12.40
2023-04-12T10:54:47.673Z,12.20
2023-04-12T10:57:47.937Z,12.20
2023-04-12T11:00:17.485Z,12.10
2023-04-12T11:03:12.350Z,12.10
2023-04-12T11:06:16.202Z,12.30
2023-04-12T11:09:23.220Z,12.40
2023-04-12T11:11:51.925Z,12.50
2023-04-12T11:14:28.829Z,12.50
2023-04-12T11:17:23.941Z,12.30
2023-04-12T11:19:55.888Z,12.30
2023-04-12T11:22:28.157Z,12.20
2023-04-12T11:24:58.340Z,12.00
2023-04-12T11:27:27.964Z,12.00
2023-04-12T11:29:58.186Z,11.90
2023-04-12T11:32:28.211Z,11.70
2023-04-12T11:34:58.061Z,11.50
2023-04-12T11:37:32.181Z,11.50
2023-04-12T11:40:01.711Z,11.50
2023-04-12T11:42:30.533Z,11.60
2023-04-12T11:45:04.022Z,11.80
2023-04-12T11:47:33.720Z,11.80
2023-04-12T11:50:02.386Z,11.60
2023-04-12T11:52:35.165Z,11.50
2023-04-12T11:55:06.952Z,11.50
2023-04-12T11:57:36.247Z,11.50
2023-04-12T12:00:06.873Z,11.60
2023-04-12T12:02:52.198Z,11.70
2023-04-12T12:05:30.926Z,11.70
2023-04-12T12:08:05.898Z,11.70
2023-04-12T12:10:46.246Z,11.70
2023-04-12T12:13:20.894Z,11.70
2023-04-12T12:15:52.909Z,11.80
2023-04-12T12:18:27.407Z,11.80
2023-04-12T12:20:56.834Z,11.80
2023-04-12T12:23:31.799Z,11.70
2023-04-12T12:26:17.096Z,11.70
2023-04-12T12:28:51.746Z,11.80
2023-04-12T12:31:22.556Z,11.90
2023-04-12T12:33:55.117Z,11.90
2023-04-12T12:36:31.496Z,11.80
2023-04-12T12:39:09.468Z,11.80
2023-04-12T12:41:38.886Z,11.90
2023-04-12T12:44:08.320Z,12.20
2023-04-12T12:46:51.650Z,12.60
2023-04-12T12:49:21.076Z,12.90
2023-04-12T12:51:49.817Z,13.20
2023-04-12T12:54:36.056Z,13.30
2023-04-12T12:57:35.799Z,13.30
2023-04-12T13:00:05.914Z,13.20
2023-04-12T13:07:15.588Z,12.80
2023-04-12T13:09:47.108Z,12.60
2023-04-12T13:12:16.436Z,12.60
2023-04-12T13:14:45.115Z,12.80
2023-04-12T13:17:13.704Z,13.00
2023-04-12T13:19:42.383Z,13.10
2023-04-12T13:22:11.194Z,13.10
2023-04-12T13:24:39.860Z,13.00
2023-04-12T13:27:09.886Z,12.90
2023-04-12T13:29:38.977Z,12.80
2023-04-12T13:32:07.817Z,12.70
2023-04-12T13:34:36.823Z,12.60
2023-04-12T13:37:05.462Z,12.50
2023-04-12T13:39:35.436Z,12.40
2023-04-12T13:42:04.075Z,12.30
2023-04-12T13:44:36.948Z,12.30
2023-04-12T13:47:06.862Z,12.30
2023-04-12T13:49:36.028Z,12.60
2023-04-12T13:52:05.067Z,12.80
2023-04-12T13:54:33.660Z,13.00
2023-04-12T13:57:02.321Z,13.10
2023-04-12T13:59:31.051Z,13.10
2023-04-12T14:02:02.222Z,13.10
2023-04-12T14:04:32.184Z,13.20
2023-04-12T14:07:01.083Z,13.30
2023-04-12T14:09:30.805Z,13.30
2023-04-12T14:12:01.863Z,13.40
2023-04-12T14:14:30.509Z,13.60
2023-04-12T14:17:02.027Z,13.70
2023-04-12T14:19:30.967Z,13.90
2023-04-12T14:21:59.591Z,14.10
2023-04-12T14:24:28.166Z,14.20
2023-04-12T14:26:57.413Z,14.10
2023-04-12T14:29:27.223Z,14.20
2023-04-12T14:31:55.916Z,14.20
2023-04-12T14:34:26.127Z,14.20
2023-04-12T14:36:54.667Z,14.10
2023-04-12T14:39:24.280Z,14.10
2023-04-12T14:41:52.995Z,14.00
2023-04-12T14:44:25.432Z,13.90
2023-04-12T14:46:54.907Z,13.80
2023-04-12T14:49:23.394Z,13.70
2023-04-12T14:51:53.641Z,13.70
2023-04-12T14:54:22.749Z,13.60
2023-04-12T14:56:55.839Z,13.60
2023-04-12T14:59:27.308Z,13.70
2023-04-12T15:01:56.094Z,13.80
2023-04-12T15:04:24.858Z,14.10
2023-04-12T15:06:54.958Z,14.50
2023-04-12T15:09:23.626Z,14.70
2023-04-12T15:11:55.246Z,14.70
2023-04-12T15:14:24.493Z,14.70
2023-04-12T15:16:53.384Z,14.70
2023-04-12T15:19:24.114Z,14.80
2023-04-12T15:21:55.563Z,14.90
2023-04-12T15:24:24.387Z,14.90
2023-04-12T15:26:53.803Z,14.90
2023-04-12T15:29:24.611Z,14.90
2023-04-12T15:31:53.436Z,15.10
2023-04-12T15:34:23.684Z,15.20
2023-04-12T15:36:52.999Z,15.40
2023-04-12T15:39:22.867Z,15.50
2023-04-12T15:41:51.400Z,15.60
2023-04-12T15:44:19.875Z,15.70
2023-04-12T15:46:59.336Z,16.00
2023-04-12T15:49:36.406Z,16.20
2023-04-12T15:52:05.209Z,16.40
2023-04-12T15:54:35.492Z,16.50
2023-04-12T15:57:09.646Z,16.60
2023-04-12T15:59:38.959Z,16.60
2023-04-12T16:02:09.783Z,16.60
2023-04-12T16:04:39.538Z,16.50
2023-04-12T16:07:08.291Z,16.40
2023-04-12T16:09:39.951Z,16.30
2023-04-12T16:12:08.810Z,16.10
2023-04-12T16:14:37.819Z,15.90
2023-04-12T16:17:06.516Z,15.70
2023-04-12T16:19:35.088Z,15.50
2023-04-12T16:22:04.138Z,15.30
2023-04-12T16:24:39.289Z,15.20
2023-04-12T16:27:08.418Z,14.90
2023-04-12T16:29:42.450Z,14.70
2023-04-12T16:32:12.176Z,14.50
2023-04-12T16:34:43.310Z,14.40
2023-04-12T16:37:40.783Z,14.20
2023-04-12T16:40:13.138Z,13.90
2023-04-12T16:42:42.670Z,13.60
2023-04-12T16:45:14.587Z,13.50
2023-04-12T16:48:08.330Z,13.30
2023-04-12T16:50:44.528Z,13.30
2023-04-12T16:53:13.238Z,13.20
2023-04-12T16:55:47.323Z,13.20
2023-04-12T16:58:16.648Z,13.10
2023-04-12T17:00:45.443Z,13.10
2023-04-12T17:03:14.144Z,13.00
2023-04-12T17:05:42.855Z,13.00
2023-04-12T17:08:11.556Z,12.80
2023-04-12T17:10:40.461Z,12.20
2023-04-12T17:13:10.646Z,11.70
2023-04-12T17:15:39.207Z,11.50
2023-04-12T17:18:10.461Z,11.40
2023-04-12T17:20:40.089Z,11.40
2023-04-12T17:23:10.143Z,11.40
2023-04-12T17:25:39.356Z,11.20
2023-04-12T17:28:09.876Z,11.20
2023-04-12T17:30:38.618Z,11.00
2023-04-12T17:33:08.061Z,11.00
2023-04-12T17:35:37.160Z,11.30
2023-04-12T17:38:05.656Z,11.80
2023-04-12T17:40:34.164Z,12.50
2023-04-12T17:43:03.578Z,12.80
2023-04-12T17:45:33.798Z,12.70
2023-04-12T17:48:02.649Z,12.30
2023-04-12T17:50:31.461Z,12.00
2023-04-12T17:53:01.909Z,11.70
2023-04-12T17:55:30.922Z,11.40
2023-04-12T17:57:59.547Z,11.10
2023-04-12T18:00:29.541Z,10.70
2023-04-12T18:03:00.129Z,10.40
2023-04-12T18:05:29.014Z,10.10
2023-04-12T18:07:58.442Z,9.90
2023-04-12T18:10:27.464Z,9.70
2023-04-12T18:12:55.986Z,9.50
2023-04-12T18:15:24.670Z,9.40
2023-04-12T18:17:53.148Z,9.40
2023-04-12T18:20:23.529Z,9.40
2023-04-12T18:22:52.069Z,9.40
2023-04-12T18:25:51.354Z,9.40
2023-04-12T18:28:20.175Z,9.40
2023-04-12T18:30:48.656Z,9.30
2023-04-12T18:33:18.071Z,9.40
2023-04-12T18:35:48.216Z,9.40
2023-04-12T18:38:17.455Z,9.40
2023-04-12T18:40:45.963Z,9.40
2023-04-12T18:43:14.611Z,9.40
2023-04-12T18:45:43.221Z,9.40
2023-04-12T18:48:12.285Z,9.40
2023-04-12T18:50:40.892Z,9.40
2023-04-12T18:53:11.284Z,9.40
2023-04-12T18:55:39.863Z,9.40
2023-04-12T18:58:08.414Z,9.40
2023-04-12T19:00:37.276Z,9.40
2023-04-12T19:03:06.263Z,9.40
2023-04-12T19:05:35.619Z,9.40
2023-04-12T19:08:04.095Z,9.40
2023-04-12T19:10:34.304Z,9.40
2023-04-12T19:13:02.909Z,9.30
2023-04-12T19:15:32.022Z,9.30
2023-04-12T19:18:01.406Z,9.40
2023-04-12T19:20:30.125Z,9.40
2023-04-12T19:22:58.756Z,9.30
2023-04-12T19:25:31.509Z,9.30
2023-04-12T19:29:14.703Z,9.30
2023-04-12T19:31:47.365Z,9.30
2023-04-12T19:34:18.111Z,9.20
2023-04-12T19:36:47.698Z,9.20
2023-04-12T19:39:18.611Z,9.20
2023-04-12T19:41:48.598Z,9.20
2023-04-12T19:44:17.146Z,9.20
2023-04-12T19:46:47.809Z,9.10
2023-04-12T19:49:16.364Z,9.10
2023-04-12T19:51:45.190Z,9.10
2023-04-12T19:54:14.965Z,9.10
2023-04-12T19:56:44.254Z,9.10
2023-04-12T19:59:13.447Z,9.10
2023-04-12T20:01:48.651Z,9.10
2023-04-12T20:04:21.750Z,9.00
2023-04-12T20:06:52.442Z,9.00
2023-04-12T20:09:22.387Z,9.00
2023-04-12T20:11:51.122Z,9.00
2023-04-12T20:14:19.872Z,8.90
2023-04-12T20:16:48.342Z,8.90
2023-04-12T20:19:17.855Z,8.90
2023-04-12T20:21:47.898Z,8.90
2023-04-12T20:24:17.059Z,8.90
2023-04-12T20:26:47.428Z,8.80
2023-04-12T20:29:16.033Z,8.70
2023-04-12T20:31:47.316Z,8.70
2023-04-12T20:34:17.772Z,8.70
2023-04-12T20:36:48.405Z,8.60
2023-04-12T20:39:17.911Z,8.60
2023-04-12T20:41:50.287Z,8.50
2023-04-12T20:44:20.381Z,8.50
2023-04-12T20:46:49.257Z,8.40
2023-04-12T20:49:18.094Z,8.40
2023-04-12T20:51:49.945Z,8.30
2023-04-12T20:54:18.615Z,8.30
2023-04-12T20:56:47.137Z,8.20
2023-04-12T20:59:21.913Z,8.20
2023-04-12T21:01:50.697Z,8.20
2023-04-12T21:04:25.541Z,8.20
2023-04-12T21:06:57.533Z,8.20
2023-04-12T21:09:26.812Z,8.30
2023-04-12T21:11:56.321Z,8.30
2023-04-12T21:14:26.016Z,8.30
2023-04-12T21:16:54.389Z,8.30
2023-04-12T21:19:22.958Z,8.30
2023-04-12T21:21:52.078Z,8.20
2023-04-12T21:24:22.418Z,8.20
2023-04-12T21:26:56.856Z,8.20
2023-04-12T21:29:25.745Z,8.20
2023-04-12T21:31:54.386Z,8.20
2023-04-12T21:34:23.385Z,8.20
2023-04-12T21:36:53.629Z,8.10
2023-04-12T21:39:23.559Z,8.20
2023-04-12T21:41:52.138Z,8.20
2023-04-12T21:44:20.983Z,8.20
2023-04-12T21:46:49.551Z,8.20
2023-04-12T21:49:18.171Z,8.20
2023-04-12T21:51:47.090Z,8.30
2023-04-12T21:54:15.958Z,8.30
2023-04-12T21:56:46.031Z,8.30
2023-04-12T21:59:14.534Z,8.30
2023-04-12T22:01:43.152Z,8.30
2023-04-12T22:04:11.745Z,8.30
2023-04-12T22:06:40.264Z,8.30
2023-04-12T22:09:08.720Z,8.30
2023-04-12T22:11:41.351Z,8.30
2023-04-12T22:14:11.315Z,8.30
2023-04-12T22:16:39.965Z,8.30
2023-04-12T22:19:08.928Z,8.40
2023-04-12T22:21:37.465Z,8.40
2023-04-12T22:24:08.264Z,8.40
2023-04-12T22:26:36.981Z,8.40
2023-04-12T22:29:06.217Z,8.40
2023-04-12T22:31:36.274Z,8.40
2023-04-12T22:34:05.008Z,8.40
2023-04-12T22:36:37.543Z,8.40
2023-04-12T22:39:06.331Z,8.40
2023-04-12T22:41:38.016Z,8.50
2023-04-12T22:44:07.529Z,8.50
2023-04-12T22:46:39.296Z,8.50
2023-04-12T22:49:07.950Z,8.60
2023-04-12T22:51:36.651Z,8.60
2023-04-12T22:54:06.366Z,8.60
2023-04-12T22:56:41.813Z,8.80
2023-04-12T22:59:10.711Z,8.90
2023-04-12T23:01:40.818Z,8.80
2023-04-12T23:04:09.744Z,8.60
2023-04-12T23:06:39.895Z,8.40
2023-04-12T23:09:09.102Z,8.30
2023-04-12T23:11:39.895Z,8.20
2023-04-12T23:14:09.905Z,8.10
2023-04-12T23:16:44.401Z,8.00
2023-04-12T23:19:14.652Z,7.90
2023-04-12T23:21:43.547Z,7.80
2023-04-12T23:24:15.566Z,7.60
2023-04-12T23:26:45.865Z,7.60
2023-04-12T23:29:14.504Z,7.50
2023-04-12T23:31:45.493Z,7.40
2023-04-12T23:34:14.359Z,7.30
2023-04-12T23:36:42.861Z,7.30
2023-04-12T23:39:11.843Z,7.30
2023-04-12T23:41:41.034Z,7.30
2023-04-12T23:44:09.790Z,7.30
2023-04-12T23:46:38.929Z,7.30
2023-04-12T23:49:09.996Z,7.30
2023-04-12T23:51:38.519Z,7.30
2023-04-12T23:54:07.375Z,7.30
2023-04-12T23:56:36.085Z,7.30
2023-04-12T23:59:04.708Z,7.40
